Time;durP1;ratioP1;P1;durP2;ratioP2;P2;SDS_P1;SDS_P2;PMS_P1;PMS_P2;Temp;Humidity;BMP_temperature;BMP_pressure;BME280_temperature;BME280_humidity;BME280_pressure;Samples;Min_cycle;Max_cycle;Signal;HPM_P1;HPM_P2
2022/03/16 00:00:43;;;;;;;38.13;25.00;;;7.80;99.90;;;;;;5134081;27;36363;-51
2022/03/16 00:03:11;;;;;;;44.95;25.20;;;7.70;99.90;;;;;;5136307;27;39749;-53
2022/03/16 00:05:39;;;;;;;38.30;23.25;;;7.60;99.90;;;;;;5134789;27;37463;-51
2022/03/16 00:08:06;;;;;;;43.65;25.55;;;7.50;99.90;;;;;;5134823;27;36855;-51
2022/03/16 00:10:33;;;;;;;45.80;26.63;;;7.50;99.90;;;;;;5136157;27;36316;-51
2022/03/16 00:13:00;;;;;;;43.08;26.17;;;7.50;99.90;;;;;;5135403;27;37663;-48
2022/03/16 00:15:28;;;;;;;40.08;25.40;;;7.40;99.90;;;;;;5134535;27;37334;-50
2022/03/16 00:17:55;;;;;;;40.80;25.95;;;7.40;99.90;;;;;;5135023;27;36325;-50
2022/03/16 00:20:24;;;;;;;43.85;26.70;;;7.40;99.90;;;;;;5134478;27;39020;-48
2022/03/16 00:22:51;;;;;;;43.10;27.23;;;7.40;99.90;;;;;;5135326;27;39017;-49
2022/03/16 00:25:18;;;;;;;43.03;26.27;;;7.40;99.90;;;;;;5135505;27;36237;-51
2022/03/16 00:27:46;;;;;;;46.42;25.42;;;7.30;99.90;;;;;;5135833;27;37028;-50
2022/03/16 00:30:14;;;;;;;41.92;26.33;;;7.10;99.90;;;;;;5134471;27;37443;-51
2022/03/16 00:32:41;;;;;;;41.85;26.63;;;7.30;99.90;;;;;;5134941;27;36540;-49
2022/03/16 00:35:09;;;;;;;40.55;24.60;;;7.30;99.90;;;;;;5135112;27;36218;-47
2022/03/16 00:37:38;;;;;;;41.75;24.80;;;7.20;99.90;;;;;;5135301;27;36627;-49
2022/03/16 00:40:09;;;;;;;38.45;23.58;;;7.20;99.90;;;;;;5134017;27;37579;-56
2022/03/16 00:42:36;;;;;;;43.45;25.88;;;7.20;99.90;;;;;;5133220;27;38332;-56
2022/03/16 00:45:04;;;;;;;38.80;23.92;;;7.10;99.90;;;;;;5133959;27;38395;-56
2022/03/16 00:47:31;;;;;;;36.50;24.10;;;7.10;99.90;;;;;;5133008;27;38162;-56
2022/03/16 00:49:59;;;;;;;39.55;25.48;;;7.00;99.90;;;;;;5134491;27;38801;-50
2022/03/16 00:52:26;;;;;;;42.30;25.67;;;7.10;99.90;;;;;;5135688;27;37510;-48
2022/03/16 00:54:55;;;;;;;44.53;25.70;;;7.10;99.90;;;;;;5135600;27;39762;-56
2022/03/16 00:57:22;;;;;;;39.38;26.02;;;7.10;99.90;;;;;;5134288;27;36545;-51
2022/03/16 00:59:49;;;;;;;41.45;24.67;;;7.10;99.90;;;;;;5135235;27;37406;-47
2022/03/16 01:02:16;;;;;;;39.13;25.70;;;7.10;99.90;;;;;;5135355;27;36538;-51
2022/03/16 01:04:44;;;;;;;50.65;25.08;;;7.10;99.90;;;;;;5134894;27;37583;-50
2022/03/16 01:07:11;;;;;;;43.58;25.13;;;7.10;99.90;;;;;;5134973;27;37962;-48
2022/03/16 01:09:39;;;;;;;42.33;24.83;;;7.10;99.90;;;;;;5135165;27;20109;-52
2022/03/16 01:12:10;;;;;;;37.88;24.17;;;7.20;99.90;;;;;;5135356;27;36619;-51
2022/03/16 01:14:38;;;;;;;40.53;26.17;;;7.10;99.90;;;;;;5134559;27;38548;-48
2022/03/16 01:17:05;;;;;;;39.35;24.60;;;7.10;99.90;;;;;;5134649;27;37445;-47
2022/03/16 01:19:34;;;;;;;42.22;26.75;;;7.20;99.90;;;;;;5133311;27;37908;-51
2022/03/16 01:22:02;;;;;;;43.55;26.90;;;7.20;99.90;;;;;;5132754;27;38820;-50
2022/03/16 01:24:29;;;;;;;48.08;29.67;;;7.20;99.90;;;;;;5134544;27;36343;-51
2022/03/16 01:26:57;;;;;;;50.00;28.98;;;7.10;99.90;;;;;;5133863;27;35724;-49
2022/03/16 01:29:25;;;;;;;48.50;30.73;;;7.10;99.90;;;;;;5132269;27;38809;-50
2022/03/16 01:31:53;;;;;;;48.42;26.85;;;6.90;99.90;;;;;;5132889;27;39090;-50
2022/03/16 01:34:21;;;;;;;51.50;27.88;;;6.90;99.90;;;;;;5134660;27;37617;-50
2022/03/16 01:36:49;;;;;;;47.65;27.45;;;6.70;99.90;;;;;;5135184;27;35367;-48
2022/03/16 01:39:16;;;;;;;62.35;31.75;;;6.70;99.90;;;;;;5134159;27;38570;-50
2022/03/16 01:41:43;;;;;;;57.78;32.28;;;6.50;99.90;;;;;;5133922;27;38271;-51
2022/03/16 01:44:11;;;;;;;57.35;31.13;;;6.50;99.90;;;;;;5134118;27;37191;-55
2022/03/16 01:46:40;;;;;;;60.45;32.70;;;6.40;99.90;;;;;;5134231;27;37234;-49
2022/03/16 01:49:07;;;;;;;58.22;33.30;;;6.40;99.90;;;;;;5133167;27;37734;-57
2022/03/16 01:51:35;;;;;;;61.10;33.45;;;6.40;99.90;;;;;;5132951;27;39454;-57
2022/03/16 01:54:03;;;;;;;53.17;29.98;;;6.30;99.90;;;;;;5134010;27;37557;-56
2022/03/16 01:56:31;;;;;;;57.83;31.08;;;6.30;99.90;;;;;;5132439;27;35574;-56
2022/03/16 01:58:58;;;;;;;45.20;26.20;;;6.30;99.90;;;;;;5132015;27;37965;-56
2022/03/16 02:01:25;;;;;;;46.80;30.10;;;6.30;99.90;;;;;;5131953;27;37714;-56
2022/03/16 02:03:54;;;;;;;48.75;29.52;;;6.40;99.90;;;;;;5133787;27;35265;-56
2022/03/16 02:06:22;;;;;;;44.65;27.25;;;6.50;99.90;;;;;;5132983;27;35498;-56
2022/03/16 02:08:50;;;;;;;57.15;30.83;;;6.50;99.90;;;;;;5131619;27;37467;-56
2022/03/16 02:11:17;;;;;;;41.70;26.25;;;6.50;99.90;;;;;;5131350;27;38479;-49
2022/03/16 02:13:44;;;;;;;40.67;25.45;;;6.50;99.90;;;;;;5133973;27;36163;-51
2022/03/16 02:16:12;;;;;;;53.40;28.73;;;6.60;99.90;;;;;;5133923;27;36912;-50
2022/03/16 02:18:39;;;;;;;42.53;26.92;;;6.60;99.90;;;;;;5132447;27;37595;-56
2022/03/16 02:21:10;;;;;;;45.72;27.70;;;6.60;99.90;;;;;;5133289;27;39004;-56
2022/03/16 02:23:38;;;;;;;47.90;27.48;;;6.70;99.90;;;;;;5133544;27;41235;-57
2022/03/16 02:26:06;;;;;;;39.47;25.27;;;6.70;99.90;;;;;;5134167;27;37949;-56
2022/03/16 02:28:33;;;;;;;87.40;22.88;;;6.70;99.90;;;;;;5132549;27;37676;-56
2022/03/16 02:31:00;;;;;;;66.70;19.63;;;6.60;99.90;;;;;;5134128;27;36578;-57
2022/03/16 02:33:28;;;;;;;120.78;22.65;;;6.50;99.90;;;;;;5131952;27;38670;-56
2022/03/16 02:35:55;;;;;;;117.50;22.80;;;6.40;99.90;;;;;;5132791;27;37320;-56
2022/03/16 02:38:22;;;;;;;538.25;38.55;;;6.40;99.90;;;;;;5134083;27;36924;-57
2022/03/16 02:40:51;;;;;;;566.70;37.90;;;6.30;99.90;;;;;;5132246;27;37814;-57
2022/03/16 02:43:18;;;;;;;245.60;23.60;;;6.20;99.90;;;;;;5130544;27;37532;-56
2022/03/16 02:45:46;;;;;;;184.77;22.17;;;6.10;99.90;;;;;;5131443;27;37405;-49
2022/03/16 02:48:13;;;;;;;232.10;24.92;;;6.00;99.90;;;;;;5131424;27;37594;-51
2022/03/16 02:50:40;;;;;;;119.70;21.77;;;5.90;99.90;;;;;;5132827;27;39621;-49
2022/03/16 02:53:08;;;;;;;109.85;19.08;;;5.90;99.90;;;;;;5133137;27;37335;-48
2022/03/16 02:55:36;;;;;;;173.73;21.50;;;5.80;99.90;;;;;;5132444;27;37383;-47
2022/03/16 02:58:05;;;;;;;69.85;18.02;;;5.80;99.90;;;;;;5131942;27;38548;-49
2022/03/16 03:00:33;;;;;;;94.10;19.25;;;5.80;99.90;;;;;;5133199;27;37499;-51
2022/03/16 03:03:00;;;;;;;159.82;18.67;;;5.90;99.90;;;;;;5133684;27;38266;-48
2022/03/16 03:05:28;;;;;;;78.53;16.00;;;6.00;99.90;;;;;;5133341;27;36670;-49
2022/03/16 03:07:55;;;;;;;109.93;18.02;;;6.00;99.90;;;;;;5134134;27;37609;-49
2022/03/16 03:10:22;;;;;;;96.00;17.08;;;6.10;99.90;;;;;;5136307;27;38488;-51
2022/03/16 03:12:50;;;;;;;119.00;17.63;;;6.10;99.90;;;;;;5136514;27;36450;-47
2022/03/16 03:15:19;;;;;;;121.45;18.42;;;6.10;99.90;;;;;;5136474;27;37172;-46
2022/03/16 03:17:47;;;;;;;150.30;17.23;;;6.10;99.90;;;;;;5135733;27;36269;-48
2022/03/16 03:20:14;;;;;;;163.05;21.85;;;6.10;99.90;;;;;;5135815;27;37687;-49
2022/03/16 03:22:42;;;;;;;58.08;17.23;;;6.10;99.90;;;;;;5136607;27;37906;-48
2022/03/16 03:25:12;;;;;;;45.17;16.33;;;6.10;99.90;;;;;;5136458;27;35600;-49
2022/03/16 03:27:39;;;;;;;69.60;18.67;;;6.10;99.90;;;;;;5135073;27;37422;-47
2022/03/16 03:30:09;;;;;;;82.32;19.23;;;6.10;99.90;;;;;;5135227;27;37915;-49
2022/03/16 03:32:38;;;;;;;113.65;19.55;;;6.00;99.90;;;;;;5136988;27;37187;-47
2022/03/16 03:35:06;;;;;;;119.55;18.50;;;6.00;99.90;;;;;;5137197;27;38310;-47
2022/03/16 03:37:34;;;;;;;110.65;19.98;;;6.00;99.90;;;;;;5136013;27;37732;-49
2022/03/16 03:40:02;;;;;;;42.30;16.58;;;5.90;99.90;;;;;;5136215;27;38314;-51
2022/03/16 03:42:30;;;;;;;42.05;17.38;;;5.90;99.90;;;;;;5134997;27;38933;-46
2022/03/16 03:44:57;;;;;;;62.92;16.95;;;6.00;99.90;;;;;;5137232;27;35524;-50
2022/03/16 03:47:24;;;;;;;79.78;16.60;;;6.00;99.90;;;;;;5135414;27;37942;-50
2022/03/16 03:49:53;;;;;;;116.32;17.38;;;5.90;99.90;;;;;;5134927;27;38908;-50
2022/03/16 03:52:20;;;;;;;42.40;16.33;;;5.90;99.90;;;;;;5135861;27;37554;-50
2022/03/16 03:54:47;;;;;;;196.65;20.65;;;5.90;99.90;;;;;;5135963;27;35537;-51
2022/03/16 03:57:15;;;;;;;108.28;15.90;;;5.90;99.90;;;;;;5135653;27;37443;-50
2022/03/16 03:59:43;;;;;;;252.60;21.52;;;5.90;99.90;;;;;;5136219;27;37456;-50
2022/03/16 04:02:11;;;;;;;214.35;22.02;;;5.80;99.90;;;;;;5135608;27;36473;-50
2022/03/16 04:04:38;;;;;;;61.60;16.85;;;5.70;99.90;;;;;;5136925;27;36163;-50
2022/03/16 04:07:07;;;;;;;71.38;17.48;;;5.60;99.90;;;;;;5136150;27;38040;-51
2022/03/16 04:09:34;;;;;;;77.70;17.55;;;5.70;99.90;;;;;;5134715;27;37817;-50
2022/03/16 04:12:01;;;;;;;152.80;21.63;;;5.70;99.90;;;;;;5134203;27;36302;-49
2022/03/16 04:14:28;;;;;;;61.38;17.23;;;5.70;99.90;;;;;;5134894;27;37056;-51
2022/03/16 04:16:56;;;;;;;64.03;18.00;;;5.70;99.90;;;;;;5136352;27;38216;-52
2022/03/16 04:19:23;;;;;;;43.30;18.70;;;5.70;99.90;;;;;;5134595;27;37484;-50
2022/03/16 04:21:50;;;;;;;36.60;20.23;;;5.80;99.90;;;;;;5132869;27;38387;-51
2022/03/16 04:24:19;;;;;;;53.03;21.02;;;5.90;99.90;;;;;;5135371;27;35497;-50
2022/03/16 04:26:46;;;;;;;45.33;19.55;;;6.00;99.90;;;;;;5135527;27;38196;-48
2022/03/16 04:29:14;;;;;;;40.33;17.10;;;6.00;99.90;;;;;;5135012;27;37311;-49
2022/03/16 04:31:41;;;;;;;74.03;18.52;;;6.00;99.90;;;;;;5135551;27;37506;-49
2022/03/16 04:34:08;;;;;;;63.65;19.58;;;6.00;99.90;;;;;;5135311;27;35591;-50
2022/03/16 04:36:36;;;;;;;114.63;20.95;;;6.00;99.90;;;;;;5135825;27;37512;-50
2022/03/16 04:39:03;;;;;;;85.70;19.25;;;5.90;99.90;;;;;;5135559;27;37648;-50
2022/03/16 04:41:32;;;;;;;162.00;21.13;;;5.90;99.90;;;;;;5135148;27;37462;-48
2022/03/16 04:43:59;;;;;;;115.15;22.30;;;5.80;99.90;;;;;;5135855;27;38272;-47
2022/03/16 04:46:26;;;;;;;56.67;18.52;;;5.70;99.90;;;;;;5135763;27;37339;-49
2022/03/16 04:48:54;;;;;;;64.95;18.73;;;5.70;99.90;;;;;;5132815;27;36519;-51
2022/03/16 04:51:21;;;;;;;130.45;22.05;;;5.60;99.90;;;;;;5135861;27;37764;-47
2022/03/16 04:53:48;;;;;;;52.20;18.38;;;5.60;99.90;;;;;;5135388;27;35864;-49
2022/03/16 04:56:16;;;;;;;74.35;20.95;;;5.70;99.90;;;;;;5133677;27;36481;-53
2022/03/16 04:58:44;;;;;;;167.73;21.73;;;5.70;99.90;;;;;;5134646;27;37879;-50
2022/03/16 05:01:12;;;;;;;120.13;22.25;;;5.80;99.90;;;;;;5134284;27;38014;-50
2022/03/16 05:03:39;;;;;;;193.63;22.08;;;5.80;99.90;;;;;;5133817;27;38121;-49
2022/03/16 05:06:06;;;;;;;141.25;19.42;;;5.90;99.90;;;;;;5134444;27;36369;-49
2022/03/16 05:08:36;;;;;;;170.27;21.05;;;5.90;99.90;;;;;;5134053;27;38038;-50
2022/03/16 05:11:04;;;;;;;179.15;23.27;;;5.80;99.90;;;;;;5135086;27;36300;-48
2022/03/16 05:13:32;;;;;;;214.40;21.95;;;5.90;99.90;;;;;;5135617;27;36071;-49
2022/03/16 05:16:00;;;;;;;173.52;22.10;;;5.90;99.90;;;;;;5134899;27;39476;-47
2022/03/16 05:18:28;;;;;;;360.23;28.30;;;5.80;99.90;;;;;;5133672;27;38205;-49
2022/03/16 05:20:55;;;;;;;212.10;21.20;;;5.80;99.90;;;;;;5134433;27;37350;-48
2022/03/16 05:23:23;;;;;;;141.73;20.17;;;5.80;99.90;;;;;;5134102;27;37072;-49
2022/03/16 05:25:50;;;;;;;179.55;20.77;;;5.80;99.90;;;;;;5132441;27;38706;-48
2022/03/16 05:28:18;;;;;;;232.43;23.83;;;5.70;99.90;;;;;;5132393;27;37840;-49
2022/03/16 05:30:45;;;;;;;194.40;22.45;;;5.70;99.90;;;;;;5131544;27;37605;-48
2022/03/16 05:33:14;;;;;;;169.68;20.55;;;5.70;99.90;;;;;;5134364;27;38461;-48
2022/03/16 05:35:42;;;;;;;160.25;20.42;;;5.80;99.90;;;;;;5134769;27;38401;-48
2022/03/16 05:38:12;;;;;;;209.85;21.88;;;5.70;99.90;;;;;;5135311;27;38478;-49
2022/03/16 05:40:40;;;;;;;149.63;19.55;;;5.70;99.90;;;;;;5133936;27;38333;-48
2022/03/16 05:43:08;;;;;;;174.98;21.05;;;5.70;99.90;;;;;;5133389;27;36306;-50
2022/03/16 05:45:35;;;;;;;149.60;18.58;;;5.70;99.90;;;;;;5134457;27;37568;-51
2022/03/16 05:48:03;;;;;;;277.83;24.38;;;5.70;99.90;;;;;;5131254;27;37854;-48
2022/03/16 05:50:32;;;;;;;312.45;27.10;;;5.60;99.90;;;;;;5133324;27;36356;-47
2022/03/16 05:53:01;;;;;;;247.23;22.85;;;5.60;99.90;;;;;;5132932;27;36734;-51
2022/03/16 05:55:29;;;;;;;159.75;21.95;;;5.60;99.90;;;;;;5134566;27;38590;-50
2022/03/16 05:57:56;;;;;;;225.93;25.67;;;5.50;99.90;;;;;;5132765;27;38169;-50
2022/03/16 06:00:23;;;;;;;97.80;20.08;;;5.50;99.90;;;;;;5131968;27;39619;-50
2022/03/16 06:02:51;;;;;;;69.38;18.75;;;5.40;99.90;;;;;;5132752;27;37638;-51
2022/03/16 06:05:18;;;;;;;63.75;19.27;;;5.50;99.90;;;;;;5133363;27;38176;-48
2022/03/16 06:07:47;;;;;;;56.60;18.30;;;5.50;99.90;;;;;;5133597;27;37733;-50
2022/03/16 06:10:17;;;;;;;120.72;21.13;;;5.50;99.90;;;;;;5133307;27;36944;-49
2022/03/16 06:12:52;;;;;;;54.60;18.73;;;5.50;99.90;;;;;;5133562;27;36536;-56
2022/03/16 06:15:19;;;;;;;37.03;19.27;;;5.50;99.90;;;;;;5133272;27;37836;-57
2022/03/16 06:17:46;;;;;;;28.42;19.80;;;5.60;99.90;;;;;;5132801;27;36782;-57
2022/03/16 06:20:14;;;;;;;27.50;19.38;;;5.60;99.90;;;;;;5133354;27;38465;-56
2022/03/16 06:22:41;;;;;;;29.85;19.00;;;5.70;99.90;;;;;;5134466;27;36570;-57
2022/03/16 06:25:10;;;;;;;30.63;19.92;;;5.70;99.90;;;;;;5132505;27;39787;-57
2022/03/16 06:27:38;;;;;;;29.55;20.67;;;5.70;99.90;;;;;;5133483;27;36583;-57
2022/03/16 06:30:06;;;;;;;33.80;20.77;;;5.80;99.90;;;;;;5131470;27;37534;-57
2022/03/16 06:32:34;;;;;;;32.90;21.17;;;5.90;99.90;;;;;;5133726;27;37785;-56
2022/03/16 06:35:01;;;;;;;36.03;22.80;;;6.00;99.90;;;;;;5132857;27;37879;-57
2022/03/16 06:37:29;;;;;;;33.92;22.55;;;6.00;99.90;;;;;;5131414;27;36668;-57
2022/03/16 06:39:56;;;;;;;32.78;21.42;;;6.00;99.90;;;;;;5131689;27;38822;-57
2022/03/16 06:42:25;;;;;;;33.75;20.85;;;6.10;99.90;;;;;;5131864;27;36647;-57
2022/03/16 06:44:52;;;;;;;31.92;21.98;;;6.20;99.90;;;;;;5135626;27;37674;-57
2022/03/16 06:47:19;;;;;;;34.25;21.45;;;6.30;99.90;;;;;;5136182;27;36950;-57
2022/03/16 06:49:47;;;;;;;29.92;21.48;;;6.30;99.90;;;;;;5136754;27;37842;-57
2022/03/16 06:52:14;;;;;;;29.52;20.08;;;6.30;99.90;;;;;;5136083;27;37586;-57
2022/03/16 06:54:41;;;;;;;33.17;21.45;;;6.30;99.90;;;;;;5135123;27;36280;-57
2022/03/16 06:57:09;;;;;;;30.85;21.00;;;6.50;99.90;;;;;;5136448;27;38312;-57
2022/03/16 06:59:37;;;;;;;32.60;21.63;;;6.50;99.90;;;;;;5135240;27;37270;-57
2022/03/16 07:02:05;;;;;;;36.63;22.85;;;6.60;99.90;;;;;;5135755;27;36850;-57
2022/03/16 07:04:32;;;;;;;36.50;23.58;;;6.60;99.90;;;;;;5135820;27;36365;-57
2022/03/16 07:07:00;;;;;;;33.40;22.20;;;6.70;99.90;;;;;;5137064;27;38909;-58
2022/03/16 07:09:27;;;;;;;30.20;20.75;;;6.70;99.90;;;;;;5136267;27;37535;-58
2022/03/16 07:11:55;;;;;;;33.35;22.00;;;6.70;99.90;;;;;;5137150;27;36993;-57
2022/03/16 07:14:34;;;;;;;33.58;22.23;;;6.90;99.90;;;;;;5137766;27;37455;-57
2022/03/16 07:17:03;;;;;;;32.22;21.63;;;6.80;99.90;;;;;;5138837;27;39063;-58
2022/03/16 07:19:31;;;;;;;32.85;21.85;;;6.90;99.90;;;;;;5139288;27;37386;-57
2022/03/16 07:21:59;;;;;;;33.35;22.13;;;6.90;99.90;;;;;;5140201;27;35517;-57
2022/03/16 07:24:26;;;;;;;32.42;22.95;;;7.00;99.90;;;;;;5138773;27;37401;-57
2022/03/16 07:26:55;;;;;;;48.40;23.30;;;7.10;99.90;;;;;;5136032;27;38493;-57
2022/03/16 07:29:23;;;;;;;37.42;23.77;;;7.20;99.90;;;;;;5135562;27;40323;-56
2022/03/16 07:31:51;;;;;;;36.28;22.45;;;7.30;99.90;;;;;;5137029;27;37846;-57
2022/03/16 07:34:21;;;;;;;33.53;23.00;;;7.40;99.90;;;;;;5136552;27;38249;-57
2022/03/16 07:36:48;;;;;;;35.83;23.23;;;7.40;99.90;;;;;;5137110;27;37867;-58
2022/03/16 07:39:15;;;;;;;40.92;24.58;;;7.50;99.90;;;;;;5137035;27;39319;-57
2022/03/16 07:41:43;;;;;;;34.28;22.88;;;7.50;99.90;;;;;;5137808;27;35946;-57
2022/03/16 07:44:10;;;;;;;38.20;23.88;;;7.60;99.90;;;;;;5137110;27;37445;-57
2022/03/16 07:46:37;;;;;;;34.35;22.55;;;7.70;99.90;;;;;;5138685;27;37752;-57
2022/03/16 07:49:05;;;;;;;40.53;23.33;;;7.70;99.90;;;;;;5137368;27;36987;-57
2022/03/16 07:51:34;;;;;;;35.50;22.65;;;7.80;99.90;;;;;;5138403;27;37664;-57
2022/03/16 07:54:01;;;;;;;34.72;23.30;;;7.90;99.90;;;;;;5138342;27;37503;-57
2022/03/16 07:56:28;;;;;;;32.08;22.48;;;7.90;99.90;;;;;;5138082;27;37466;-57
2022/03/16 07:58:58;;;;;;;40.05;24.40;;;8.00;99.90;;;;;;5137515;27;37201;-58
2022/03/16 08:01:25;;;;;;;32.92;22.40;;;8.10;99.90;;;;;;5137867;27;35725;-57
2022/03/16 08:03:52;;;;;;;32.58;21.75;;;8.20;99.90;;;;;;5140417;27;37005;-57
2022/03/16 08:06:20;;;;;;;34.03;22.15;;;8.30;99.90;;;;;;5138455;27;39012;-57
2022/03/16 08:08:48;;;;;;;34.70;23.05;;;8.40;99.90;;;;;;5138411;27;36155;-57
2022/03/16 08:11:16;;;;;;;36.83;22.85;;;8.60;99.90;;;;;;5136871;27;35424;-57
2022/03/16 08:13:43;;;;;;;34.15;22.23;;;8.70;99.90;;;;;;5137912;27;38882;-57
2022/03/16 08:16:10;;;;;;;32.38;21.63;;;8.80;99.90;;;;;;5138628;27;38971;-51
2022/03/16 08:18:38;;;;;;;33.35;23.08;;;8.90;99.90;;;;;;5138993;27;37909;-51
2022/03/16 08:21:06;;;;;;;31.10;21.38;;;9.00;99.90;;;;;;5138150;27;37498;-48
2022/03/16 08:23:34;;;;;;;35.47;23.65;;;9.20;99.90;;;;;;5138234;27;38349;-57
2022/03/16 08:26:03;;;;;;;27.98;20.67;;;9.30;99.90;;;;;;5137974;27;36537;-57
2022/03/16 08:28:30;;;;;;;31.80;21.15;;;9.50;99.90;;;;;;5139479;27;37486;-58
2022/03/16 08:30:58;;;;;;;32.40;22.90;;;9.70;99.90;;;;;;5137880;27;35492;-58
2022/03/16 08:33:25;;;;;;;30.38;20.92;;;9.90;99.90;;;;;;5137636;27;37555;-57
2022/03/16 08:35:52;;;;;;;30.63;20.42;;;10.20;99.90;;;;;;5138906;27;37902;-58
2022/03/16 08:38:20;;;;;;;30.40;20.42;;;10.50;99.90;;;;;;5137790;27;36314;-57
2022/03/16 08:40:47;;;;;;;31.27;21.35;;;10.80;99.90;;;;;;5135214;27;36956;-58
2022/03/16 08:43:16;;;;;;;27.10;18.77;;;11.00;99.90;;;;;;5136998;27;38843;-57
2022/03/16 08:45:43;;;;;;;28.45;19.80;;;11.20;99.50;;;;;;5136602;27;37884;-58
2022/03/16 08:48:10;;;;;;;30.67;19.77;;;11.30;98.90;;;;;;5136462;27;35545;-58
2022/03/16 08:50:38;;;;;;;27.90;19.25;;;11.50;98.10;;;;;;5136265;27;36766;-58
2022/03/16 08:53:05;;;;;;;25.98;20.00;;;11.70;97.10;;;;;;5137047;27;37522;-58
2022/03/16 08:55:33;;;;;;;28.00;20.25;;;11.90;96.40;;;;;;5136601;27;39245;-57
2022/03/16 08:58:00;;;;;;;26.92;20.73;;;12.20;96.60;;;;;;5137883;27;39121;-58
2022/03/16 09:00:29;;;;;;;24.48;18.88;;;12.60;95.70;;;;;;5137532;27;36352;-51
2022/03/16 09:02:57;;;;;;;26.15;19.98;;;12.90;93.90;;;;;;5138405;27;37498;-57
2022/03/16 09:05:24;;;;;;;24.35;18.58;;;13.30;92.90;;;;;;5137350;27;38857;-50
2022/03/16 09:07:52;;;;;;;24.60;17.98;;;13.60;91.60;;;;;;5137849;27;37736;-52
2022/03/16 09:10:19;;;;;;;26.27;18.13;;;13.90;91.10;;;;;;5138674;27;36842;-58
2022/03/16 09:12:47;;;;;;;24.83;17.92;;;14.20;90.50;;;;;;5138377;27;36429;-59
2022/03/16 09:15:14;;;;;;;22.65;16.80;;;14.60;87.80;;;;;;5138209;27;37547;-58
2022/03/16 09:17:43;;;;;;;26.35;18.92;;;15.00;84.20;;;;;;5138211;27;37380;-52
2022/03/16 09:20:10;;;;;;;23.77;17.58;;;15.40;80.10;;;;;;5138387;27;36883;-51
2022/03/16 09:22:38;;;;;;;25.13;18.25;;;15.70;79.30;;;;;;5137455;27;36306;-52
2022/03/16 09:25:07;;;;;;;25.52;18.27;;;15.90;77.40;;;;;;5136566;27;38537;-52
2022/03/16 09:27:35;;;;;;;26.60;18.98;;;16.10;75.10;;;;;;5137933;27;36348;-51
2022/03/16 09:30:03;;;;;;;31.42;18.80;;;16.20;75.10;;;;;;5137018;27;37074;-52
2022/03/16 09:32:33;;;;;;;29.25;20.35;;;16.00;75.60;;;;;;5137616;27;37012;-48
2022/03/16 09:35:04;;;;;;;27.55;19.75;;;15.60;75.40;;;;;;5138061;27;37982;-58
2022/03/16 09:37:31;;;;;;;27.42;19.92;;;15.20;76.90;;;;;;5137334;27;38291;-58
2022/03/16 09:39:58;;;;;;;27.40;20.17;;;15.00;80.10;;;;;;5138019;27;36436;-58
2022/03/16 09:42:29;;;;;;;32.70;20.48;;;14.80;79.70;;;;;;5138870;27;36360;-58
2022/03/16 09:45:00;;;;;;;26.75;18.77;;;14.70;80.40;;;;;;5137252;27;38025;-51
2022/03/16 09:47:28;;;;;;;25.88;18.92;;;14.80;80.80;;;;;;5137528;27;37463;-49
2022/03/16 09:49:56;;;;;;;24.92;17.85;;;14.90;79.00;;;;;;5137586;27;36772;-58
2022/03/16 09:52:26;;;;;;;30.05;18.98;;;15.20;77.20;;;;;;5137817;27;39943;-58
2022/03/16 09:54:54;;;;;;;29.75;17.73;;;15.60;73.30;;;;;;5138603;27;38229;-58
2022/03/16 09:57:21;;;;;;;23.98;17.85;;;15.70;71.00;;;;;;5137974;27;38215;-51
2022/03/16 09:59:48;;;;;;;25.70;17.08;;;15.90;69.70;;;;;;5138084;27;37561;-58
2022/03/16 10:02:17;;;;;;;24.27;17.42;;;16.30;68.80;;;;;;5138140;27;40419;-59
2022/03/16 10:04:47;;;;;;;26.00;16.65;;;16.70;65.30;;;;;;5136329;27;37604;-59
2022/03/16 10:07:18;;;;;;;24.10;16.17;;;16.90;62.30;;;;;;5135045;27;37506;-52
2022/03/16 10:15:18;;;;;;;20.17;14.02;;;17.60;59.30;;;;;;5132918;27;39457;-55
2022/03/16 10:17:48;;;;;;;20.17;13.30;;;17.70;58.50;;;;;;5132736;27;37708;-56
2022/03/16 10:20:30;;;;;;;19.42;13.90;;;17.40;57.70;;;;;;5131846;27;36584;-49
2022/03/16 10:23:00;;;;;;;20.05;13.57;;;17.10;57.20;;;;;;5133270;27;39946;-56
2022/03/16 10:25:30;;;;;;;17.92;12.13;;;16.90;58.30;;;;;;5133865;27;36641;-56
2022/03/16 10:28:11;;;;;;;16.33;11.15;;;16.70;57.00;;;;;;5132824;27;39197;-49
2022/03/16 10:30:51;;;;;;;16.42;11.48;;;16.70;56.70;;;;;;5134559;27;36734;-49
2022/03/16 10:33:21;;;;;;;17.50;11.80;;;16.60;57.60;;;;;;5134173;27;36996;-46
2022/03/16 10:36:13;;;;;;;17.90;11.60;;;16.50;56.90;;;;;;5134767;27;36630;-56
2022/03/16 10:38:43;;;;;;;16.80;11.05;;;16.50;55.40;;;;;;5133005;27;37353;-56
2022/03/16 10:46:34;;;;;;;14.25;10.43;;;16.30;55.90;;;;;;5133794;27;35722;-57
2022/03/16 10:46:48;;;;;;;14.68;9.43;;;16.20;56.20;;;;;;5134254;27;39136;-46
2022/03/16 10:49:19;;;;;;;18.02;10.52;;;16.00;56.10;;;;;;5133858;27;37171;-49
2022/03/16 10:51:47;;;;;;;17.48;10.35;;;15.90;57.00;;;;;;5132777;27;35474;-56
2022/03/16 10:54:15;;;;;;;16.00;10.07;;;15.80;58.20;;;;;;5133491;27;39102;-56
2022/03/16 10:56:45;;;;;;;16.55;11.38;;;15.60;58.10;;;;;;5132636;27;36489;-55
2022/03/16 10:59:14;;;;;;;15.43;9.25;;;15.60;59.70;;;;;;5133645;27;39435;-47
2022/03/16 11:01:42;;;;;;;11.90;7.85;;;15.70;59.80;;;;;;5131605;27;36889;-49
2022/03/16 11:04:09;;;;;;;14.38;8.65;;;15.70;58.10;;;;;;5133719;27;36504;-56
2022/03/16 11:06:37;;;;;;;11.80;8.25;;;15.70;56.70;;;;;;5133632;27;38172;-58
2022/03/16 11:09:06;;;;;;;12.50;8.05;;;15.70;56.40;;;;;;5133591;27;36945;-59
2022/03/16 11:14:22;;;;;;;13.02;8.70;;;15.70;55.50;;;;;;5136128;27;38295;-58
2022/03/16 11:16:50;;;;;;;13.95;9.15;;;15.70;55.20;;;;;;5132272;27;36758;-52
2022/03/16 11:19:18;;;;;;;12.90;8.43;;;15.70;55.60;;;;;;5133857;27;36336;-48
2022/03/16 11:21:54;;;;;;;14.20;8.55;;;15.70;55.30;;;;;;5134783;27;35329;-50
2022/03/16 11:24:24;;;;;;;15.50;8.98;;;15.70;56.20;;;;;;5136757;27;38342;-52
2022/03/16 11:27:07;;;;;;;14.75;9.75;;;15.80;56.40;;;;;;5133635;27;37587;-49
2022/03/16 11:29:44;;;;;;;13.45;9.80;;;15.80;54.70;;;;;;5133965;27;37540;-51
2022/03/16 11:32:14;;;;;;;16.13;9.68;;;15.80;55.20;;;;;;5134324;27;36466;-51
2022/03/16 11:34:47;;;;;;;19.15;10.50;;;15.90;55.70;;;;;;5134796;27;37532;-49
2022/03/16 11:37:15;;;;;;;15.50;10.07;;;15.90;55.40;;;;;;5136331;27;37583;-58
2022/03/16 11:39:44;;;;;;;16.67;9.98;;;15.90;56.20;;;;;;5136262;27;37645;-58
2022/03/16 11:42:15;;;;;;;15.10;10.40;;;15.90;56.40;;;;;;5137018;27;37257;-50
2022/03/16 11:44:45;;;;;;;14.80;10.73;;;15.90;56.50;;;;;;5136891;27;36318;-51
2022/03/16 11:47:33;;;;;;;16.95;10.15;;;16.00;56.50;;;;;;5136824;27;38442;-58
2022/03/16 11:50:11;;;;;;;15.75;10.13;;;15.90;55.60;;;;;;5137499;27;36370;-59
2022/03/16 11:53:00;;;;;;;15.00;10.18;;;15.80;55.70;;;;;;5137645;27;37532;-52
2022/03/16 11:55:54;;;;;;;15.02;9.63;;;15.70;56.10;;;;;;5137284;27;39936;-59
2022/03/16 11:58:28;;;;;;;19.10;10.85;;;15.70;55.80;;;;;;5086402;27;38313;-51
2022/03/16 12:01:27;;;;;;;17.80;10.95;;;15.70;56.50;;;;;;5136818;27;38072;-49
2022/03/16 12:04:08;;;;;;;16.25;10.27;;;15.70;57.00;;;;;;5137701;27;36571;-51
2022/03/16 12:06:52;;;;;;;16.67;10.55;;;15.80;57.50;;;;;;5137222;27;38197;-50
2022/03/16 12:09:21;;;;;;;17.15;9.70;;;15.80;56.10;;;;;;5133998;27;39012;-59
2022/03/16 12:15:01;;;;;;;16.60;9.07;;;15.80;57.40;;;;;;5137099;27;38948;-59
2022/03/16 12:17:30;;;;;;;12.90;8.30;;;15.70;54.70;;;;;;5136953;27;36406;-59
2022/03/16 12:20:11;;;;;;;19.15;10.98;;;15.70;55.10;;;;;;5135992;27;38362;-58
2022/03/16 12:22:46;;;;;;;14.98;9.60;;;15.60;56.20;;;;;;5136628;27;38132;-59
2022/03/16 12:25:33;;;;;;;14.95;8.65;;;15.60;56.60;;;;;;5135436;27;36722;-58
2022/03/16 12:30:50;;;;;;;14.23;8.88;;;15.40;55.60;;;;;;5136168;27;39593;-59
2022/03/16 12:33:22;;;;;;;14.02;9.45;;;15.30;55.50;;;;;;5135323;27;38842;-59
2022/03/16 12:35:50;;;;;;;13.35;8.75;;;15.20;55.40;;;;;;5136528;27;36552;-58
2022/03/16 12:38:19;;;;;;;14.18;9.02;;;15.20;55.60;;;;;;5136489;27;36336;-58
2022/03/16 12:43:33;;;;;;;15.30;9.57;;;15.10;56.50;;;;;;5137034;27;40121;-59
2022/03/16 12:46:16;;;;;;;15.45;9.30;;;15.00;56.50;;;;;;5136482;27;36474;-59
2022/03/16 12:48:49;;;;;;;13.65;8.95;;;14.90;55.70;;;;;;5136933;27;39346;-58
2022/03/16 12:51:33;;;;;;;14.20;10.00;;;14.80;56.20;;;;;;5136182;27;36616;-58
2022/03/16 12:54:00;;;;;;;17.88;9.75;;;14.80;56.10;;;;;;5135823;27;37417;-60
2022/03/16 12:56:28;;;;;;;15.32;9.35;;;14.70;56.80;;;;;;5136083;27;36477;-58
2022/03/16 12:58:56;;;;;;;15.23;9.82;;;14.70;57.40;;;;;;5135080;27;37650;-59
2022/03/16 13:01:25;;;;;;;15.93;10.18;;;14.70;57.50;;;;;;5135901;27;39204;-58